Airfield :
LOGIN :

Register | Disclaimer

   EN    FR    IT 

 










Legend :    VFR   Marginal VFR   IFR   Intensive IFR   Very Intensive IFR
Visi :
Ceiling :
>= 8 km
>= 3000ft
5 to 8 km
1000 to 3000 ft
1500m to 5 km
500 to 1000 ft
800 to 1500m
200 to 500 ft
< 800m
< 200 ft
Symbols :   Thunderstorms  Fog  Heavy snow  Heavy precipitations  Wind > 20 kt
SIGMETs :     Misc.  Thunderstorms  Icing  Turbulence  Mountain Waves  Volcanic Ashes






- Airport Elevation : 1504 ft
- IATA code : PNA


LEPP - Noain Pamplona

CURRENT METAR :
  • 071530Z 09003KT 9999 FEW045 23/12 Q1017

EXPIRED METARs :
  • 071500Z 05005KT 360V110 9999 FEW045 22/11 Q1017
  • 071430Z 10003KT 030V180 9999 FEW045 22/11 Q1018
  • 071400Z 22003KT 9999 FEW045 22/11 Q1018
  • 071330Z 36006KT 280V080 9999 SCT044 23/10 Q1018
  • 071300Z 06006KT 010V120 9999 SCT044 23/10 Q1019

TAF TAF LEPP
Valid from the 07 at 15:00 until the 08 at 15:00 UTC


071400Z 0715/0815 VRB06KT 9999 FEW025 TX30/0815Z TN10/0804Z
PROB30
TEMPO 0715/0718 SCT035TCU
PROB40
TEMPO 0723/0805 3000 BR
BECMG 0808/0810 17012KT
TEMPO 0810/0815 14016G27KT



MET'MAP, your aeronautical weather chart ! - Copyright ORBIFLY December 2007 - Disclaimer

ORBIFLY MET'MAP TEAM :

Programming & Development : Alexandra Zaïnal
Concept & original design : Baudouin d'Aumeries
Assistance for programming : Marc-Olivier Méhu
Technical & hardware support : Manuel Goepfert

Contact : metmap@orbifly.com




SOURCES & CREDITS :

   NOAA